Time;durP1;ratioP1;P1;durP2;ratioP2;P2;SDS_P1;SDS_P2;PMS_P1;PMS_P2;Temp;Humidity;BMP_temperature;BMP_pressure;BME280_temperature;BME280_humidity;BME280_pressure;Samples;Min_cycle;Max_cycle;Signal;HPM_P1;HPM_P2
2023/04/22 00:01:05;;;;;;;;;;;;;;;;;;5046873;28;19924;-78
2023/04/22 00:03:32;;;;;;;;;;;;;;;;;;5050254;28;19917;-78
2023/04/22 00:05:57;;;;;;;;;;;;;;;;;;5053255;28;20307;-78
2023/04/22 00:08:24;;;;;;;;;;;;;;;;;;5053946;28;19920;-78
2023/04/22 00:10:49;;;;;;;;;;;;;;;;;;5054307;28;20387;-77
2023/04/22 00:13:14;;;;;;;;;;;;;;;;;;5053577;28;20007;-78
2023/04/22 00:15:40;;;;;;;;;;;;;;;;;;5072297;28;19920;-78
2023/04/22 00:18:06;;;;;;;;;;;;;;;;;;5070094;28;19920;-77
2023/04/22 00:20:31;;;;;;;;;;;;;;;;;;5061080;28;20388;-78
2023/04/22 00:22:57;;;;;;;;;;;;;;;;;;5068883;28;19912;-78
2023/04/22 00:25:22;;;;;;;;;;;;;;;;;;5067365;28;19948;-77
2023/04/22 00:27:47;;;;;;;;;;;;;;;;;;5063905;28;19912;-78
2023/04/22 00:30:13;;;;;;;;;;;;;;;;;;5036940;28;19917;-78
2023/04/22 00:32:38;;;;;;;;;;;;;;;;;;5047061;28;20016;-77
2023/04/22 00:35:04;;;;;;;;;;;;;;;;;;5064262;28;19917;-77
2023/04/22 00:37:29;;;;;;;;;;;;;;;;;;5071046;28;19919;-78
2023/04/22 00:39:56;;;;;;;;;;;;;;;;;;5063854;28;19924;-77
2023/04/22 00:42:22;;;;;;;;;;;;;;;;;;5063395;28;19956;-77
2023/04/22 00:44:47;;;;;;;;;;;;;;;;;;5070674;28;19943;-77
2023/04/22 00:47:12;;;;;;;;;;;;;;;;;;5068991;28;19919;-77
2023/04/22 00:49:38;;;;;;;;;;;;;;;;;;5068473;28;19917;-77
2023/04/22 00:52:03;;;;;;;;;;;;;;;;;;5059286;28;19932;-77
2023/04/22 00:54:29;;;;;;;;;;;;;;;;;;5066284;28;19924;-77
2023/04/22 00:56:54;;;;;;;;;;;;;;;;;;5067432;28;20379;-77
2023/04/22 00:59:19;;;;;;;;;;;;;;;;;;5066651;28;19916;-76
2023/04/22 01:01:44;;;;;;;;;;;;;;;;;;5058868;28;19919;-77
2023/04/22 01:04:12;;;;;;;;;;;;;;;;;;5064206;28;20315;-77
2023/04/22 01:06:38;;;;;;;;;;;;;;;;;;5066985;28;19934;-77
2023/04/22 01:09:03;;;;;;;;;;;;;;;;;;5064392;28;19916;-76
2023/04/22 01:11:29;;;;;;;;;;;;;;;;;;5066309;28;19935;-77
2023/04/22 01:13:54;;;;;;;;;;;;;;;;;;5035027;28;19932;-77
2023/04/22 01:16:19;;;;;;;;;;;;;;;;;;5052626;28;19920;-77
2023/04/22 01:18:45;;;;;;;;;;;;;;;;;;5049320;28;20006;-77
2023/04/22 01:21:10;;;;;;;;;;;;;;;;;;5051542;28;19955;-77
2023/04/22 01:23:36;;;;;;;;;;;;;;;;;;5053840;28;19929;-78
2023/04/22 01:26:01;;;;;;;;;;;;;;;;;;5060982;28;19962;-77
2023/04/22 01:28:26;;;;;;;;;;;;;;;;;;5054609;28;19927;-77
2023/04/22 01:30:52;;;;;;;;;;;;;;;;;;5071040;28;20409;-77
2023/04/22 01:33:18;;;;;;;;;;;;;;;;;;5067329;28;19928;-77
2023/04/22 01:35:43;;;;;;;;;;;;;;;;;;5065760;28;19920;-77
2023/04/22 01:38:08;;;;;;;;;;;;;;;;;;5060621;28;19916;-77
2023/04/22 01:40:34;;;;;;;;;;;;;;;;;;5052993;28;19935;-77
2023/04/22 01:42:59;;;;;;;;;;;;;;;;;;5052623;28;19916;-78
2023/04/22 01:45:24;;;;;;;;;;;;;;;;;;5052565;28;20440;-77
2023/04/22 01:47:50;;;;;;;;;;;;;;;;;;5064132;28;20084;-78
2023/04/22 01:50:15;;;;;;;;;;;;;;;;;;5058327;28;19912;-77
2023/04/22 01:52:41;;;;;;;;;;;;;;;;;;5059314;28;19929;-77
2023/04/22 01:55:06;;;;;;;;;;;;;;;;;;5059373;28;19913;-77
2023/04/22 01:57:31;;;;;;;;;;;;;;;;;;5057578;28;19917;-77
2023/04/22 01:59:57;;;;;;;;;;;;;;;;;;5058494;28;19923;-77
2023/04/22 02:02:22;;;;;;;;;;;;;;;;;;5058822;28;20037;-76
2023/04/22 02:04:48;;;;;;;;;;;;;;;;;;5037639;28;19912;-76
2023/04/22 02:07:13;;;;;;;;;;;;;;;;;;5058429;28;19923;-77
2023/04/22 02:09:38;;;;;;;;;;;;;;;;;;5055026;28;19919;-76
2023/04/22 02:12:05;;;;;;;;;;;;;;;;;;5051599;28;20007;-76
2023/04/22 02:14:30;;;;;;;;;;;;;;;;;;5057023;28;19999;-77
2023/04/22 02:17:03;;;;;;;;;;;;;;;;;;5057099;28;19981;-76
2023/04/22 02:19:29;;;;;;;;;;;;;;;;;;5058216;28;20368;-77
2023/04/22 02:21:54;;;;;;;;;;;;;;;;;;5054038;28;19912;-77
2023/04/22 02:24:19;;;;;;;;;;;;;;;;;;5055525;28;20334;-77
2023/04/22 02:26:46;;;;;;;;;;;;;;;;;;5054581;28;20011;-78
2023/04/22 02:29:11;;;;;;;;;;;;;;;;;;5051365;28;19917;-77
2023/04/22 02:31:36;;;;;;;;;;;;;;;;;;5052474;28;20015;-77
2023/04/22 02:34:02;;;;;;;;;;;;;;;;;;5050564;28;19931;-77
2023/04/22 02:36:27;;;;;;;;;;;;;;;;;;5052701;28;19959;-77
2023/04/22 02:38:53;;;;;;;;;;;;;;;;;;5070497;28;19916;-77
2023/04/22 02:41:18;;;;;;;;;;;;;;;;;;5056364;28;19917;-77
2023/04/22 02:43:45;;;;;;;;;;;;;;;;;;5069091;28;19916;-76
2023/04/22 02:46:11;;;;;;;;;;;;;;;;;;5063580;28;19996;-76
2023/04/22 02:48:37;;;;;;;;;;;;;;;;;;5081600;28;20343;-77
2023/04/22 02:51:02;;;;;;;;;;;;;;;;;;5061056;28;20008;-78
2023/04/22 02:53:27;;;;;;;;;;;;;;;;;;5055619;28;19970;-77
2023/04/22 02:55:54;;;;;;;;;;;;;;;;;;5060202;28;20533;-76
2023/04/22 02:58:19;;;;;;;;;;;;;;;;;;5062031;28;20383;-76
2023/04/22 03:00:45;;;;;;;;;;;;;;;;;;5059122;28;20011;-77
2023/04/22 03:03:10;;;;;;;;;;;;;;;;;;5061751;28;19920;-77
2023/04/22 03:05:36;;;;;;;;;;;;;;;;;;5058695;28;19956;-78
2023/04/22 03:08:01;;;;;;;;;;;;;;;;;;5043617;28;20016;-78
2023/04/22 03:10:27;;;;;;;;;;;;;;;;;;5042665;28;19913;-77
2023/04/22 03:12:53;;;;;;;;;;;;;;;;;;5035847;28;19920;-77
2023/04/22 03:15:19;;;;;;;;;;;;;;;;;;5027225;28;20434;-77
2023/04/22 03:17:44;;;;;;;;;;;;;;;;;;5056858;28;19916;-78
2023/04/22 03:20:12;;;;;;;;;;;;;;;;;;5055790;28;20021;-77
2023/04/22 03:22:37;;;;;;;;;;;;;;;;;;5056812;28;20023;-78
2023/04/22 03:25:05;;;;;;;;;;;;;;;;;;5055122;28;19912;-76
2023/04/22 03:27:31;;;;;;;;;;;;;;;;;;5052684;28;19921;-78
2023/04/22 03:29:56;;;;;;;;;;;;;;;;;;5050183;28;20429;-77
2023/04/22 03:32:22;;;;;;;;;;;;;;;;;;5066548;28;19928;-78
2023/04/22 03:34:54;;;;;;;;;;;;;;;;;;5063148;28;20380;-79
2023/04/22 03:37:19;;;;;;;;;;;;;;;;;;5043666;28;20050;-78
2023/04/22 03:39:45;;;;;;;;;;;;;;;;;;5035623;28;19917;-77
2023/04/22 03:42:10;;;;;;;;;;;;;;;;;;5041980;28;20292;-77
2023/04/22 03:44:39;;;;;;;;;;;;;;;;;;5056622;28;19913;-77
2023/04/22 03:47:05;;;;;;;;;;;;;;;;;;5062047;28;19924;-77
2023/04/22 03:49:36;;;;;;;;;;;;;;;;;;5050831;28;19912;-77
2023/04/22 03:52:01;;;;;;;;;;;;;;;;;;5043765;28;19938;-77
2023/04/22 03:54:27;;;;;;;;;;;;;;;;;;5055717;28;19912;-77
2023/04/22 03:56:53;;;;;;;;;;;;;;;;;;5055428;28;20433;-78
2023/04/22 03:59:20;;;;;;;;;;;;;;;;;;5032777;28;20404;-77
2023/04/22 04:01:46;;;;;;;;;;;;;;;;;;5042444;28;20027;-77
2023/04/22 04:04:11;;;;;;;;;;;;;;;;;;5049154;28;20015;-78
2023/04/22 04:06:43;;;;;;;;;;;;;;;;;;5048307;28;19921;-78
2023/04/22 04:09:09;;;;;;;;;;;;;;;;;;5055179;28;20453;-78
2023/04/22 04:11:35;;;;;;;;;;;;;;;;;;5054204;28;19967;-77
2023/04/22 04:14:02;;;;;;;;;;;;;;;;;;5035894;28;19925;-77
2023/04/22 04:16:41;;;;;;;;;;;;;;;;;;5057037;28;19917;-77
2023/04/22 04:19:12;;;;;;;;;;;;;;;;;;5051532;28;19917;-78
2023/04/22 04:21:38;;;;;;;;;;;;;;;;;;5034764;28;19967;-77
2023/04/22 04:24:05;;;;;;;;;;;;;;;;;;5051372;28;19962;-77
2023/04/22 04:26:33;;;;;;;;;;;;;;;;;;5050069;28;19923;-77
2023/04/22 04:29:07;;;;;;;;;;;;;;;;;;5038179;28;19912;-76
2023/04/22 04:31:34;;;;;;;;;;;;;;;;;;5072640;28;20380;-77
2023/04/22 04:33:59;;;;;;;;;;;;;;;;;;5050114;28;19924;-76
2023/04/22 04:36:26;;;;;;;;;;;;;;;;;;5030782;28;20004;-77
2023/04/22 04:38:51;;;;;;;;;;;;;;;;;;5031556;28;20012;-77
2023/04/22 04:41:20;;;;;;;;;;;;;;;;;;5051936;28;20026;-77
2023/04/22 04:43:45;;;;;;;;;;;;;;;;;;5048456;28;19920;-78
2023/04/22 04:46:20;;;;;;;;;;;;;;;;;;5053275;28;19917;-77
2023/04/22 04:48:47;;;;;;;;;;;;;;;;;;5042473;28;20371;-76
2023/04/22 04:51:13;;;;;;;;;;;;;;;;;;5036873;28;20338;-77
2023/04/22 04:53:46;;;;;;;;;;;;;;;;;;5058866;28;19977;-78
2023/04/22 04:56:12;;;;;;;;;;;;;;;;;;5052243;28;20379;-77
2023/04/22 04:58:37;;;;;;;;;;;;;;;;;;5049229;28;20426;-77
2023/04/22 05:01:10;;;;;;;;;;;;;;;;;;5056644;28;19916;-79
2023/04/22 05:03:35;;;;;;;;;;;;;;;;;;5058884;28;19962;-78
2023/04/22 05:06:00;;;;;;;;;;;;;;;;;;5059386;28;19917;-79
2023/04/22 05:08:26;;;;;;;;;;;;;;;;;;5057888;28;19916;-79
2023/04/22 05:10:57;;;;;;;;;;;;;;;;;;5055064;28;19936;-79
2023/04/22 05:13:22;;;;;;;;;;;;;;;;;;5062515;28;19924;-79
2023/04/22 05:15:49;;;;;;;;;;;;;;;;;;5057864;28;19920;-79
2023/04/22 05:18:14;;;;;;;;;;;;;;;;;;5044134;28;19917;-78
2023/04/22 05:20:40;;;;;;;;;;;;;;;;;;5056469;28;19923;-78
2023/04/22 05:23:06;;;;;;;;;;;;;;;;;;5050830;28;19916;-78
2023/04/22 05:25:31;;;;;;;;;;;;;;;;;;5054985;28;19985;-78
2023/04/22 05:28:02;;;;;;;;;;;;;;;;;;5038116;28;19917;-79
2023/04/22 05:30:33;;;;;;;;;;;;;;;;;;5060287;28;19920;-79
2023/04/22 05:32:58;;;;;;;;;;;;;;;;;;5069020;28;19928;-79
2023/04/22 05:35:23;;;;;;;;;;;;;;;;;;5061623;28;19999;-77
2023/04/22 05:37:49;;;;;;;;;;;;;;;;;;5068897;28;20433;-78
2023/04/22 05:40:14;;;;;;;;;;;;;;;;;;5060233;28;20380;-78
2023/04/22 05:42:39;;;;;;;;;;;;;;;;;;5057006;28;20368;-78
2023/04/22 05:45:05;;;;;;;;;;;;;;;;;;5042038;28;20012;-79
2023/04/22 05:47:30;;;;;;;;;;;;;;;;;;5065370;28;19920;-78
2023/04/22 05:49:56;;;;;;;;;;;;;;;;;;5059429;28;19920;-81
2023/04/22 05:52:32;;;;;;;;;;;;;;;;;;5048987;28;20355;-80
2023/04/22 05:55:06;;;;;;;;;;;;;;;;;;5055222;28;20387;-81
2023/04/22 05:57:31;;;;;;;;;;;;;;;;;;5055320;28;19924;-81
2023/04/22 05:59:58;;;;;;;;;;;;;;;;;;5057909;28;20007;-79
2023/04/22 06:02:23;;;;;;;;;;;;;;;;;;5058204;28;20001;-79
2023/04/22 06:04:49;;;;;;;;;;;;;;;;;;5061860;28;19920;-79
2023/04/22 06:07:14;;;;;;;;;;;;;;;;;;5058922;28;19917;-83
2023/04/22 06:09:39;;;;;;;;;;;;;;;;;;5063558;28;19913;-80
2023/04/22 06:12:06;;;;;;;;;;;;;;;;;;5060381;28;19970;-81
2023/04/22 06:14:32;;;;;;;;;;;;;;;;;;5063095;28;19913;-80
2023/04/22 06:16:57;;;;;;;;;;;;;;;;;;5063078;28;19943;-79
2023/04/22 06:19:23;;;;;;;;;;;;;;;;;;5058266;28;19919;-80
2023/04/22 06:21:48;;;;;;;;;;;;;;;;;;5057471;28;19917;-80
2023/04/22 06:24:14;;;;;;;;;;;;;;;;;;5056771;28;19920;-79
2023/04/22 06:26:41;;;;;;;;;;;;;;;;;;5034614;28;19927;-79
2023/04/22 06:29:06;;;;;;;;;;;;;;;;;;5048176;28;19912;-79
2023/04/22 06:31:32;;;;;;;;;;;;;;;;;;5075224;28;19966;-80
2023/04/22 06:33:59;;;;;;;;;;;;;;;;;;5076917;28;19920;-80
2023/04/22 06:36:26;;;;;;;;;;;;;;;;;;5066769;28;20038;-79
2023/04/22 06:38:56;;;;;;;;;;;;;;;;;;5067428;28;19912;-80
2023/04/22 06:41:37;;;;;;;;;;;;;;;;;;5068140;28;19920;-80
2023/04/22 06:44:11;;;;;;;;;;;;;;;;;;5066654;28;19952;-79
2023/04/22 06:46:54;;;;;;;;;;;;;;;;;;5061519;28;19928;-80
2023/04/22 06:49:22;;;;;;;;;;;;;;;;;;5058658;28;20027;-79
2023/04/22 06:52:14;;;;;;;;;;;;;;;;;;5051224;28;19923;-79
2023/04/22 06:54:40;;;;;;;;;;;;;;;;;;5073751;28;19920;-80
2023/04/22 06:57:06;;;;;;;;;;;;;;;;;;5062153;28;19912;-80
2023/04/22 06:59:32;;;;;;;;;;;;;;;;;;5058031;28;19916;-80
2023/04/22 07:01:58;;;;;;;;;;;;;;;;;;5059045;28;20031;-80
2023/04/22 07:04:48;;;;;;;;;;;;;;;;;;5063073;28;20011;-80
2023/04/22 07:07:13;;;;;;;;;;;;;;;;;;5061761;28;19960;-79
2023/04/22 07:09:39;;;;;;;;;;;;;;;;;;5064045;28;19920;-79
2023/04/22 07:12:05;;;;;;;;;;;;;;;;;;5060227;28;20380;-79
2023/04/22 07:14:31;;;;;;;;;;;;;;;;;;5058065;28;19921;-79
2023/04/22 07:16:56;;;;;;;;;;;;;;;;;;5055845;28;19916;-78
2023/04/22 07:19:25;;;;;;;;;;;;;;;;;;5056638;28;19919;-79
2023/04/22 07:21:50;;;;;;;;;;;;;;;;;;5055030;28;19921;-79
2023/04/22 07:24:16;;;;;;;;;;;;;;;;;;5058254;28;19919;-79
2023/04/22 07:26:41;;;;;;;;;;;;;;;;;;5058906;28;19924;-79
2023/04/22 07:29:06;;;;;;;;;;;;;;;;;;5061886;28;19928;-79
2023/04/22 07:31:32;;;;;;;;;;;;;;;;;;5071858;28;19916;-79
2023/04/22 07:33:57;;;;;;;;;;;;;;;;;;5056698;28;19924;-85
2023/04/22 07:36:22;;;;;;;;;;;;;;;;;;5071508;28;19917;-83
2023/04/22 07:38:48;;;;;;;;;;;;;;;;;;5080349;28;19920;-82
2023/04/22 07:41:13;;;;;;;;;;;;;;;;;;5062980;28;19948;-82
2023/04/22 07:43:38;;;;;;;;;;;;;;;;;;5064120;28;19924;-82
2023/04/22 07:46:03;;;;;;;;;;;;;;;;;;5053018;28;20019;-82
2023/04/22 07:48:29;;;;;;;;;;;;;;;;;;5066453;28;19923;-81
2023/04/22 07:50:54;;;;;;;;;;;;;;;;;;5059622;28;19927;-82
2023/04/22 07:53:19;;;;;;;;;;;;;;;;;;5053912;28;20296;-82
2023/04/22 07:55:45;;;;;;;;;;;;;;;;;;5049940;28;19943;-82
2023/04/22 07:58:10;;;;;;;;;;;;;;;;;;5062798;28;19916;-82
2023/04/22 08:00:35;;;;;;;;;;;;;;;;;;5059059;28;19916;-81
2023/04/22 08:03:01;;;;;;;;;;;;;;;;;;5055137;28;20007;-81
2023/04/22 08:05:26;;;;;;;;;;;;;;;;;;5054084;28;19917;-81
2023/04/22 08:07:51;;;;;;;;;;;;;;;;;;5065292;28;19939;-81
2023/04/22 08:10:17;;;;;;;;;;;;;;;;;;5055207;28;19916;-81
2023/04/22 08:12:42;;;;;;;;;;;;;;;;;;5053178;28;19952;-81
2023/04/22 08:15:07;;;;;;;;;;;;;;;;;;5054401;28;20346;-80
2023/04/22 08:17:32;;;;;;;;;;;;;;;;;;5067168;28;19912;-81
2023/04/22 08:19:58;;;;;;;;;;;;;;;;;;5066087;28;20328;-81
2023/04/22 08:22:24;;;;;;;;;;;;;;;;;;5096826;28;20383;-81
2023/04/22 08:24:49;;;;;;;;;;;;;;;;;;5063793;28;19924;-79
2023/04/22 08:27:14;;;;;;;;;;;;;;;;;;5059068;28;19913;-80
2023/04/22 08:29:40;;;;;;;;;;;;;;;;;;5061030;28;19920;-81
2023/04/22 08:32:05;;;;;;;;;;;;;;;;;;5060568;28;19982;-82
2023/04/22 08:34:31;;;;;;;;;;;;;;;;;;5062047;28;19920;-80
2023/04/22 08:36:56;;;;;;;;;;;;;;;;;;5053739;28;19913;-81
2023/04/22 08:39:21;;;;;;;;;;;;;;;;;;5065453;28;19917;-82
2023/04/22 08:41:47;;;;;;;;;;;;;;;;;;5057420;28;19917;-79
2023/04/22 08:44:12;;;;;;;;;;;;;;;;;;5054706;28;19924;-79
2023/04/22 08:46:37;;;;;;;;;;;;;;;;;;5055964;28;20471;-79
2023/04/22 08:49:03;;;;;;;;;;;;;;;;;;5057990;28;19916;-80
2023/04/22 08:51:28;;;;;;;;;;;;;;;;;;5057353;28;19912;-80
2023/04/22 08:53:54;;;;;;;;;;;;;;;;;;5059569;28;19955;-80
2023/04/22 08:56:19;;;;;;;;;;;;;;;;;;5055686;28;20399;-79
2023/04/22 08:58:45;;;;;;;;;;;;;;;;;;5054408;28;19916;-81
2023/04/22 09:01:10;;;;;;;;;;;;;;;;;;5053188;28;19917;-79
2023/04/22 09:03:36;;;;;;;;;;;;;;;;;;5052010;28;19921;-80
2023/04/22 09:06:01;;;;;;;;;;;;;;;;;;5054305;28;19919;-80
2023/04/22 09:08:26;;;;;;;;;;;;;;;;;;5057516;28;19916;-79
2023/04/22 09:10:52;;;;;;;;;;;;;;;;;;5051617;28;19920;-79
2023/04/22 09:13:17;;;;;;;;;;;;;;;;;;5049866;28;19927;-79
2023/04/22 09:15:42;;;;;;;;;;;;;;;;;;5055796;28;20054;-80
2023/04/22 09:18:08;;;;;;;;;;;;;;;;;;5054658;28;19916;-80
2023/04/22 09:20:33;;;;;;;;;;;;;;;;;;5059040;28;19912;-79
2023/04/22 09:22:58;;;;;;;;;;;;;;;;;;5055651;28;19921;-79
2023/04/22 09:25:24;;;;;;;;;;;;;;;;;;5057801;28;19916;-79
2023/04/22 09:27:49;;;;;;;;;;;;;;;;;;5052261;28;20289;-79
2023/04/22 09:30:17;;;;;;;;;;;;;;;;;;5066158;28;20376;-79
2023/04/22 09:32:42;;;;;;;;;;;;;;;;;;5067845;28;19929;-79
2023/04/22 09:35:07;;;;;;;;;;;;;;;;;;5067450;28;19917;-78
2023/04/22 09:37:33;;;;;;;;;;;;;;;;;;5061680;28;20801;-80
2023/04/22 09:39:58;;;;;;;;;;;;;;;;;;5060072;28;20390;-79
2023/04/22 09:42:24;;;;;;;;;;;;;;;;;;5060383;28;19951;-79
2023/04/22 09:44:51;;;;;;;;;;;;;;;;;;5058091;28;19916;-79
2023/04/22 09:47:16;;;;;;;;;;;;;;;;;;5051957;28;19916;-80
2023/04/22 09:49:42;;;;;;;;;;;;;;;;;;5061724;28;20379;-79
2023/04/22 09:52:07;;;;;;;;;;;;;;;;;;5059906;28;19916;-79
2023/04/22 09:54:32;;;;;;;;;;;;;;;;;;5062979;28;19924;-79
2023/04/22 09:56:58;;;;;;;;;;;;;;;;;;5057207;28;19966;-79
2023/04/22 09:59:23;;;;;;;;;;;;;;;;;;5060116;28;20015;-79
2023/04/22 10:01:48;;;;;;;;;;;;;;;;;;5056235;28;20058;-80
2023/04/22 10:04:15;;;;;;;;;;;;;;;;;;5058946;28;19912;-80
2023/04/22 10:06:40;;;;;;;;;;;;;;;;;;5047243;28;19939;-80
2023/04/22 10:09:06;;;;;;;;;;;;;;;;;;5052824;28;20284;-80
2023/04/22 10:11:32;;;;;;;;;;;;;;;;;;5057234;28;19917;-80
2023/04/22 10:13:57;;;;;;;;;;;;;;;;;;5055080;28;20798;-79
2023/04/22 10:16:23;;;;;;;;;;;;;;;;;;5053654;28;19916;-79
2023/04/22 10:18:48;;;;;;;;;;;;;;;;;;5054181;28;20257;-78
2023/04/22 10:21:13;;;;;;;;;;;;;;;;;;5052407;28;20050;-78
2023/04/22 10:23:40;;;;;;;;;;;;;;;;;;5053094;28;19920;-79
2023/04/22 10:26:05;;;;;;;;;;;;;;;;;;5053549;28;19916;-79
2023/04/22 10:28:30;;;;;;;;;;;;;;;;;;5054971;28;19962;-80
2023/04/22 10:30:56;;;;;;;;;;;;;;;;;;5055461;28;19917;-77
2023/04/22 10:33:32;;;;;;;;;;;;;;;;;;5061587;28;19974;-80
2023/04/22 10:35:58;;;;;;;;;;;;;;;;;;5064041;28;20311;-78
2023/04/22 10:38:23;;;;;;;;;;;;;;;;;;5062439;28;19966;-79
2023/04/22 10:40:48;;;;;;;;;;;;;;;;;;5058360;28;19916;-79
2023/04/22 10:43:14;;;;;;;;;;;;;;;;;;5062252;28;20367;-79
2023/04/22 10:45:39;;;;;;;;;;;;;;;;;;5048341;28;19924;-78
2023/04/22 10:48:04;;;;;;;;;;;;;;;;;;5088996;28;19920;-79
2023/04/22 10:50:30;;;;;;;;;;;;;;;;;;5057087;28;19971;-80
2023/04/22 10:52:55;;;;;;;;;;;;;;;;;;5056855;28;20450;-79
2023/04/22 10:55:20;;;;;;;;;;;;;;;;;;5057175;28;20054;-79
2023/04/22 10:57:46;;;;;;;;;;;;;;;;;;5060106;28;19912;-79
2023/04/22 11:00:11;;;;;;;;;;;;;;;;;;5057904;28;19965;-79
2023/04/22 11:02:40;;;;;;;;;;;;;;;;;;5061518;28;19916;-78
2023/04/22 11:05:06;;;;;;;;;;;;;;;;;;5051863;28;19924;-77
2023/04/22 11:07:33;;;;;;;;;;;;;;;;;;5060123;28;19916;-77
2023/04/22 11:09:59;;;;;;;;;;;;;;;;;;5049022;28;20399;-77
2023/04/22 11:12:24;;;;;;;;;;;;;;;;;;5059831;28;19916;-78
2023/04/22 11:14:49;;;;;;;;;;;;;;;;;;5055022;28;20097;-78
2023/04/22 11:17:15;;;;;;;;;;;;;;;;;;5056765;28;19912;-77
2023/04/22 11:19:40;;;;;;;;;;;;;;;;;;5055571;28;19925;-80
2023/04/22 11:22:05;;;;;;;;;;;;;;;;;;5058839;28;19942;-79
2023/04/22 11:24:31;;;;;;;;;;;;;;;;;;5057472;28;19921;-76
2023/04/22 11:26:57;;;;;;;;;;;;;;;;;;5054204;28;19913;-79
2023/04/22 11:29:22;;;;;;;;;;;;;;;;;;5062445;28;19954;-78
2023/04/22 11:31:47;;;;;;;;;;;;;;;;;;5068970;28;19924;-78
2023/04/22 11:34:13;;;;;;;;;;;;;;;;;;5057096;28;20383;-78
2023/04/22 11:36:38;;;;;;;;;;;;;;;;;;5061911;28;19913;-78
2023/04/22 11:39:03;;;;;;;;;;;;;;;;;;5064452;28;19917;-79
2023/04/22 11:41:30;;;;;;;;;;;;;;;;;;5058685;28;19919;-78
2023/04/22 11:43:55;;;;;;;;;;;;;;;;;;5062733;28;19965;-78
2023/04/22 11:46:20;;;;;;;;;;;;;;;;;;5058022;28;20039;-79
2023/04/22 11:48:46;;;;;;;;;;;;;;;;;;5063657;28;19916;-78
2023/04/22 11:51:11;;;;;;;;;;;;;;;;;;5054447;28;19913;-78
2023/04/22 11:53:38;;;;;;;;;;;;;;;;;;5063256;28;19956;-78
2023/04/22 11:56:04;;;;;;;;;;;;;;;;;;5061313;28;19959;-78
2023/04/22 11:58:29;;;;;;;;;;;;;;;;;;5066718;28;20010;-78
2023/04/22 12:00:55;;;;;;;;;;;;;;;;;;5061110;28;19920;-79
2023/04/22 12:03:21;;;;;;;;;;;;;;;;;;5060665;28;19921;-78
2023/04/22 12:05:46;;;;;;;;;;;;;;;;;;5042654;28;19913;-78
2023/04/22 12:08:11;;;;;;;;;;;;;;;;;;5064583;28;19917;-78
2023/04/22 12:10:37;;;;;;;;;;;;;;;;;;5060261;28;19913;-78
2023/04/22 12:13:02;;;;;;;;;;;;;;;;;;5052858;28;19921;-78
2023/04/22 12:15:27;;;;;;;;;;;;;;;;;;5052770;28;19916;-79
2023/04/22 12:17:53;;;;;;;;;;;;;;;;;;5057021;28;20011;-78
2023/04/22 12:20:18;;;;;;;;;;;;;;;;;;5060011;28;20685;-78
2023/04/22 12:22:43;;;;;;;;;;;;;;;;;;5059000;28;19923;-78
2023/04/22 12:25:09;;;;;;;;;;;;;;;;;;5059192;28;19955;-78
2023/04/22 12:27:34;;;;;;;;;;;;;;;;;;5056359;28;19916;-78
2023/04/22 12:30:00;;;;;;;;;;;;;;;;;;5069182;28;19970;-78
2023/04/22 12:32:25;;;;;;;;;;;;;;;;;;5072419;28;19931;-76
2023/04/22 12:34:51;;;;;;;;;;;;;;;;;;5069928;28;20014;-77
2023/04/22 12:39:36;;;;;;;4.80;2.08;;;;;;;;;;5107032;27;20491;-77
2023/04/22 12:42:04;;;;;;;5.18;2.30;;;;;;;;;;5104040;28;20111;-77
2023/04/22 12:44:30;;;;;;;3.28;1.70;;;;;;;;;;5097479;28;20073;-77
2023/04/22 12:46:55;;;;;;;4.25;1.85;;;;;;;;;;5099131;28;20044;-77
2023/04/22 12:49:21;;;;;;;4.25;1.63;;;;;;;;;;5082567;28;20774;-77
2023/04/22 12:51:46;;;;;;;3.33;1.70;;;;;;;;;;5095746;28;20446;-76
2023/04/22 12:54:12;;;;;;;4.18;1.90;;;;;;;;;;5091028;28;20130;-76
2023/04/22 12:56:37;;;;;;;9.13;3.92;;;;;;;;;;5091275;28;20036;-78
2023/04/22 12:59:02;;;;;;;5.15;2.15;;;;;;;;;;5094409;28;20024;-79
2023/04/22 13:01:28;;;;;;;6.10;2.38;;;;;;;;;;5088016;28;20036;-77
2023/04/22 13:03:54;;;;;;;4.60;2.30;;;;;;;;;;5071259;28;20608;-77
2023/04/22 13:06:19;;;;;;;8.05;2.58;;;;;;;;;;5087955;28;20078;-77
2023/04/22 13:08:45;;;;;;;6.88;1.95;;;;;;;;;;5085444;28;20032;-78
2023/04/22 13:11:10;;;;;;;7.80;1.92;;;;;;;;;;5067313;28;20028;-79
2023/04/22 13:13:36;;;;;;;9.30;2.78;;;;;;;;;;5086542;28;20028;-78
2023/04/22 13:16:01;;;;;;;4.95;1.98;;;;;;;;;;5089394;28;20100;-78
2023/04/22 13:18:27;;;;;;;4.80;2.10;;;;;;;;;;5082899;28;20027;-79
2023/04/22 13:20:55;;;;;;;4.65;1.83;;;;;;;;;;5088541;28;20077;-78
2023/04/22 13:23:22;;;;;;;5.82;2.17;;;;;;;;;;5090494;28;20027;-78
2023/04/22 13:25:51;;;;;;;6.15;1.92;;;;;;;;;;5090470;28;20040;-77
2023/04/22 13:28:17;;;;;;;5.03;2.08;;;;;;;;;;5090773;28;20032;-78
2023/04/22 13:30:42;;;;;;;4.47;2.20;;;;;;;;;;5097101;28;20039;-79
2023/04/22 13:33:08;;;;;;;6.95;2.60;;;;;;;;;;5087133;28;20024;-79
2023/04/22 13:35:34;;;;;;;4.47;2.30;;;;;;;;;;5087561;28;20909;-79
2023/04/22 13:38:00;;;;;;;6.38;2.28;;;;;;;;;;5088397;28;20099;-78
2023/04/22 13:40:26;;;;;;;3.42;2.10;;;;;;;;;;5097941;28;20039;-78
2023/04/22 13:42:51;;;;;;;6.85;2.42;;;;;;;;;;5087224;28;20051;-79
2023/04/22 13:45:17;;;;;;;5.65;1.98;;;;;;;;;;5085431;28;20024;-79
2023/04/22 13:47:42;;;;;;;4.10;1.98;;;;;;;;;;5085534;28;20525;-80
2023/04/22 13:50:08;;;;;;;4.28;1.90;;;;;;;;;;5078358;28;20392;-79
2023/04/22 13:52:34;;;;;;;3.75;1.70;;;;;;;;;;5072773;28;20537;-78
2023/04/22 13:54:59;;;;;;;3.35;1.83;;;;;;;;;;5072433;28;20040;-79
2023/04/22 13:57:25;;;;;;;4.68;2.00;;;;;;;;;;5073172;28;20028;-78
2023/04/22 13:59:50;;;;;;;6.30;2.10;;;;;;;;;;5078558;28;20036;-79
2023/04/22 14:02:16;;;;;;;7.70;2.55;;;;;;;;;;5074255;28;20052;-77
2023/04/22 14:04:41;;;;;;;3.40;2.13;;;;;;;;;;5055012;28;20510;-79
2023/04/22 14:07:07;;;;;;;4.90;1.88;;;;;;;;;;5072936;28;20372;-79
2023/04/22 14:09:33;;;;;;;6.47;2.10;;;;;;;;;;5072835;28;20119;-79
2023/04/22 14:11:59;;;;;;;6.10;2.05;;;;;;;;;;5072424;28;20055;-79
2023/04/22 14:14:24;;;;;;;4.22;1.75;;;;;;;;;;5071662;28;20032;-79
2023/04/22 14:16:50;;;;;;;8.80;2.35;;;;;;;;;;5072772;28;20037;-79
2023/04/22 14:19:16;;;;;;;5.47;2.22;;;;;;;;;;5072430;28;20199;-78
2023/04/22 14:21:41;;;;;;;5.10;2.53;;;;;;;;;;5072873;28;20024;-79
2023/04/22 14:24:06;;;;;;;4.35;2.38;;;;;;;;;;5081333;28;20090;-78
2023/04/22 14:26:32;;;;;;;5.50;2.67;;;;;;;;;;5071861;28;20016;-79
2023/04/22 14:28:58;;;;;;;8.38;3.40;;;;;;;;;;5072538;28;20379;-78
2023/04/22 14:31:23;;;;;;;6.22;3.40;;;;;;;;;;5071258;28;20028;-78
2023/04/22 14:33:49;;;;;;;6.00;3.33;;;;;;;;;;5080499;28;20130;-79
2023/04/22 14:36:14;;;;;;;7.45;3.40;;;;;;;;;;5060233;28;20032;-79
2023/04/22 14:38:40;;;;;;;8.40;3.03;;;;;;;;;;5071343;28;20057;-79
2023/04/22 14:41:05;;;;;;;7.55;2.92;;;;;;;;;;5072839;28;20114;-79
2023/04/22 14:43:32;;;;;;;7.20;2.97;;;;;;;;;;5072863;28;20037;-78
2023/04/22 14:45:58;;;;;;;7.65;3.20;;;;;;;;;;5086104;28;20051;-78
2023/04/22 14:48:25;;;;;;;6.10;2.90;;;;;;;;;;5073025;28;20086;-79
2023/04/22 14:50:50;;;;;;;6.35;2.80;;;;;;;;;;5085951;28;20036;-78
2023/04/22 14:53:15;;;;;;;6.68;3.10;;;;;;;;;;5073184;28;20029;-78
2023/04/22 14:55:41;;;;;;;8.90;3.70;;;;;;;;;;5073525;28;20048;-78
2023/04/22 14:58:06;;;;;;;6.68;2.95;;;;;;;;;;5072218;28;20094;-79
2023/04/22 15:00:32;;;;;;;10.38;3.25;;;;;;;;;;5070883;28;20502;-77
2023/04/22 15:02:57;;;;;;;4.63;2.90;;;;;;;;;;5072882;28;20039;-78
2023/04/22 15:05:23;;;;;;;7.80;3.58;;;;;;;;;;5073450;28;20040;-79
2023/04/22 15:07:49;;;;;;;10.27;3.15;;;;;;;;;;5074175;28;20471;-78
2023/04/22 15:10:15;;;;;;;8.57;3.40;;;;;;;;;;5074676;28;20032;-81
2023/04/22 15:12:41;;;;;;;4.50;2.60;;;;;;;;;;5073518;28;20174;-78
2023/04/22 15:15:07;;;;;;;9.73;3.88;;;;;;;;;;5056671;28;20474;-79
2023/04/22 15:17:33;;;;;;;8.98;3.00;;;;;;;;;;5071944;28;20043;-78
2023/04/22 15:19:59;;;;;;;4.35;2.70;;;;;;;;;;5073567;28;20028;-78
2023/04/22 15:22:24;;;;;;;4.88;2.90;;;;;;;;;;5073913;28;20546;-78
2023/04/22 15:24:50;;;;;;;5.57;2.65;;;;;;;;;;5075153;28;20077;-78
2023/04/22 15:27:16;;;;;;;7.35;3.30;;;;;;;;;;5069288;28;20030;-78
2023/04/22 15:29:45;;;;;;;6.03;2.95;;;;;;;;;;5062479;28;20103;-79
2023/04/22 15:32:10;;;;;;;5.78;2.83;;;;;;;;;;5060186;28;20048;-77
2023/04/22 15:34:36;;;;;;;6.00;2.53;;;;;;;;;;5068874;28;20069;-78
2023/04/22 15:37:01;;;;;;;8.80;2.50;;;;;;;;;;5069308;28;20021;-78
2023/04/22 15:39:27;;;;;;;7.93;2.70;;;;;;;;;;5070897;28;20811;-77
2023/04/22 15:41:52;;;;;;;9.15;3.10;;;;;;;;;;5061138;28;20505;-77
2023/04/22 15:44:18;;;;;;;6.50;2.85;;;;;;;;;;5073415;28;20115;-77
2023/04/22 15:46:44;;;;;;;11.63;2.90;;;;;;;;;;5071817;28;20617;-78
2023/04/22 15:49:09;;;;;;;6.65;2.50;;;;;;;;;;5070353;28;20463;-77
2023/04/22 15:51:35;;;;;;;15.32;3.33;;;;;;;;;;5070637;28;20051;-76
2023/04/22 15:54:02;;;;;;;9.95;2.75;;;;;;;;;;5068284;28;20033;-76
2023/04/22 15:56:28;;;;;;;8.45;2.88;;;;;;;;;;5068700;28;20037;-76
2023/04/22 15:58:53;;;;;;;6.68;2.92;;;;;;;;;;5074533;28;20078;-77
2023/04/22 16:01:19;;;;;;;6.35;3.08;;;;;;;;;;5074254;28;20036;-78
2023/04/22 16:03:44;;;;;;;8.25;3.28;;;;;;;;;;5073928;28;20021;-75
2023/04/22 16:06:10;;;;;;;7.30;3.38;;;;;;;;;;5074732;28;20020;-79
2023/04/22 16:08:38;;;;;;;9.05;3.40;;;;;;;;;;5064382;28;20025;-77